Time;durP1;ratioP1;P1;durP2;ratioP2;P2;SDS_P1;SDS_P2;PMS_P1;PMS_P2;Temp;Humidity;BMP_temperature;BMP_pressure;BME280_temperature;BME280_humidity;BME280_pressure;Samples;Min_cycle;Max_cycle;Signal;HPM_P1;HPM_P2
2023/07/11 00:01:37;;;;;;;8.38;4.07;;;24.10;94.60;;;;;;4982153;23;20065;-85
2023/07/11 00:04:07;;;;;;;7.38;4.32;;;24.10;94.70;;;;;;4854112;29;20061;-86
2023/07/11 00:06:36;;;;;;;8.00;4.40;;;24.10;94.70;;;;;;4835275;29;22350;-85
2023/07/11 05:32:57;;;;;;;8.02;5.78;;;24.60;95.10;;;;;;4834548;29;20136;-87
2023/07/11 05:35:24;;;;;;;7.63;5.60;;;24.80;94.70;;;;;;4832785;29;20061;-85
2023/07/11 05:37:52;;;;;;;9.10;6.28;;;24.90;93.90;;;;;;4822205;29;20128;-88
2023/07/11 05:40:19;;;;;;;7.68;5.47;;;25.00;94.20;;;;;;4840199;29;20071;-87
2023/07/11 05:42:46;;;;;;;10.55;4.80;;;25.20;93.50;;;;;;4819439;29;20058;-86
2023/07/11 05:45:13;;;;;;;7.82;5.05;;;25.30;93.60;;;;;;4817159;29;20065;-89
2023/07/11 05:47:40;;;;;;;7.88;5.38;;;25.40;93.00;;;;;;4828118;29;20136;-86
2023/07/11 05:50:07;;;;;;;6.95;4.85;;;25.60;92.90;;;;;;4827399;29;23033;-85
2023/07/11 05:52:34;;;;;;;6.93;4.65;;;25.70;92.70;;;;;;4813435;29;20573;-86
2023/07/11 05:55:02;;;;;;;7.47;4.97;;;25.80;92.10;;;;;;4796127;29;20058;-87
2023/07/11 05:57:29;;;;;;;6.93;4.80;;;25.90;91.60;;;;;;4783673;29;20050;-86
2023/07/11 05:59:56;;;;;;;6.97;5.13;;;26.00;92.00;;;;;;4788351;29;20081;-88
2023/07/11 06:02:23;;;;;;;9.15;4.82;;;26.00;91.20;;;;;;4782753;29;20065;-89
2023/07/11 06:04:50;;;;;;;6.63;4.03;;;26.10;91.30;;;;;;4785027;29;20194;-84
2023/07/11 06:07:17;;;;;;;6.20;4.15;;;26.20;90.30;;;;;;4798161;29;20409;-85
2023/07/11 06:09:45;;;;;;;7.75;4.32;;;26.30;89.10;;;;;;4802456;29;22523;-87
2023/07/11 06:12:12;;;;;;;8.55;4.45;;;26.40;87.10;;;;;;4793446;29;20230;-84
2023/07/11 06:14:39;;;;;;;5.65;4.05;;;26.50;84.60;;;;;;4800910;29;20089;-85
2023/07/11 06:17:06;;;;;;;6.80;4.60;;;26.70;85.80;;;;;;4791345;29;20066;-85
2023/07/11 06:19:33;;;;;;;5.95;3.90;;;26.70;83.80;;;;;;4773107;29;20282;-84
2023/07/11 06:22:00;;;;;;;4.93;4.07;;;26.90;84.20;;;;;;4785545;29;20056;-85
2023/07/11 06:24:28;;;;;;;8.38;4.30;;;26.90;82.20;;;;;;4772111;29;20146;-86
2023/07/11 06:26:55;;;;;;;7.03;4.10;;;27.00;81.90;;;;;;4781809;29;20059;-85
2023/07/11 06:29:22;;;;;;;6.50;3.70;;;27.10;82.00;;;;;;4805565;29;20528;-84
2023/07/11 06:31:50;;;;;;;5.00;3.80;;;27.20;80.90;;;;;;4794541;29;20183;-87
2023/07/11 06:34:17;;;;;;;7.18;3.80;;;27.40;81.90;;;;;;4784453;29;20050;-87
2023/07/11 06:36:44;;;;;;;5.80;3.60;;;27.50;80.40;;;;;;4784351;29;20067;-84
2023/07/11 06:39:11;;;;;;;5.15;3.78;;;27.50;79.40;;;;;;4801425;29;20078;-86
2023/07/11 06:41:39;;;;;;;5.53;3.50;;;27.60;79.70;;;;;;4786677;29;20534;-86
2023/07/11 06:44:08;;;;;;;5.53;3.65;;;27.70;79.60;;;;;;4798455;29;20058;-84
2023/07/11 06:46:35;;;;;;;6.28;3.92;;;27.80;80.30;;;;;;4789753;29;20050;-84
2023/07/11 06:49:02;;;;;;;6.85;4.10;;;27.80;78.60;;;;;;4800179;29;20101;-83
2023/07/11 06:51:30;;;;;;;7.15;3.75;;;27.80;77.10;;;;;;4791287;29;20061;-88
2023/07/11 06:53:57;;;;;;;5.47;3.78;;;27.80;76.50;;;;;;4773878;29;20054;-84
2023/07/11 06:56:25;;;;;;;4.22;3.47;;;27.90;76.60;;;;;;4796401;29;20144;-83
2023/07/11 06:58:53;;;;;;;6.25;3.60;;;27.90;76.10;;;;;;4790601;29;20053;-84
2023/07/11 07:01:22;;;;;;;5.45;3.90;;;27.70;75.20;;;;;;4786392;29;20092;-86
2023/07/11 07:04:02;;;;;;;;;;;28.00;75.90;;;;;;4814001;29;20065;-86
2023/07/11 07:06:32;;;;;;;5.22;3.63;;;28.10;76.10;;;;;;4790346;29;20411;-82
2023/07/11 07:09:00;;;;;;;6.22;4.18;;;28.20;75.60;;;;;;4796449;29;20060;-84
2023/07/11 07:11:27;;;;;;;5.47;4.07;;;28.30;75.50;;;;;;4791783;29;20134;-83
2023/07/11 07:13:55;;;;;;;7.20;4.32;;;28.20;74.30;;;;;;4775542;29;20398;-84
2023/07/11 07:16:34;;;;;;;6.18;3.88;;;28.20;73.90;;;;;;4776119;29;20061;-83
2023/07/11 07:19:03;;;;;;;8.15;4.20;;;28.30;74.80;;;;;;4788690;29;20054;-80
2023/07/11 07:21:30;;;;;;;10.20;4.13;;;28.30;73.60;;;;;;4800850;29;20056;-86
2023/07/11 07:23:58;;;;;;;7.05;3.95;;;28.50;74.30;;;;;;4787013;29;20050;-83
2023/07/11 07:26:25;;;;;;;4.90;3.70;;;28.60;74.10;;;;;;4787711;29;20137;-86
2023/07/11 07:28:53;;;;;;;4.35;3.85;;;28.50;73.10;;;;;;4806407;29;20054;-83
2023/07/11 07:31:20;;;;;;;7.00;3.87;;;28.70;72.90;;;;;;4731712;29;1205406;-82
2023/07/11 07:33:47;;;;;;;5.60;4.10;;;28.70;72.10;;;;;;4794442;29;20700;-82
2023/07/11 07:36:14;;;;;;;6.95;4.18;;;28.60;71.70;;;;;;4762310;29;20529;-82
2023/07/11 07:38:41;;;;;;;5.38;3.88;;;28.50;71.60;;;;;;4792948;29;20184;-84
2023/07/11 07:41:10;;;;;;;7.05;4.07;;;28.70;72.60;;;;;;4778905;29;22475;-81
2023/07/11 07:43:39;;;;;;;6.20;3.70;;;28.70;72.20;;;;;;4771852;29;20089;-82
2023/07/11 07:46:06;;;;;;;5.43;3.97;;;28.60;69.40;;;;;;4789169;29;22383;-81
2023/07/11 07:48:34;;;;;;;5.85;4.15;;;28.70;69.30;;;;;;4790307;29;20171;-84
2023/07/11 07:51:07;;;;;;;4.47;3.63;;;28.70;68.70;;;;;;4788595;29;20058;-84
2023/07/11 07:53:35;;;;;;;5.88;3.55;;;28.90;69.30;;;;;;4760099;29;20065;-81
2023/07/11 07:56:15;;;;;;;6.20;3.78;;;29.10;69.60;;;;;;4776597;29;20053;-83
2023/07/11 07:58:42;;;;;;;6.90;3.50;;;29.30;69.60;;;;;;4779852;29;20095;-83
2023/07/11 08:01:12;;;;;;;4.25;3.55;;;29.30;67.10;;;;;;4771904;29;20057;-84
2023/07/11 08:03:40;;;;;;;6.60;4.05;;;29.40;67.00;;;;;;4777554;29;20082;-83
2023/07/11 08:06:08;;;;;;;5.53;3.85;;;29.50;67.20;;;;;;4792652;29;20376;-82
2023/07/11 08:08:43;;;;;;;6.05;3.45;;;29.50;66.20;;;;;;4799252;29;20137;-81
2023/07/11 08:11:11;;;;;;;6.88;4.28;;;29.40;64.60;;;;;;4758455;29;20062;-83
2023/07/11 08:13:39;;;;;;;6.93;3.85;;;29.30;65.00;;;;;;4796152;29;20422;-83
2023/07/11 08:16:08;;;;;;;6.75;3.42;;;29.20;65.00;;;;;;4769995;29;20422;-84
2023/07/11 08:18:56;;;;;;;4.05;3.33;;;29.10;64.80;;;;;;4773746;29;20067;-82
2023/07/11 08:21:23;;;;;;;7.13;3.97;;;29.30;66.60;;;;;;4795900;29;20042;-80
2023/07/11 08:23:51;;;;;;;4.18;3.40;;;29.40;65.20;;;;;;4809452;29;21004;-81
2023/07/11 08:26:19;;;;;;;4.93;3.47;;;29.20;63.00;;;;;;4776977;29;20056;-85
2023/07/11 08:28:47;;;;;;;7.85;4.50;;;29.20;64.20;;;;;;4784526;29;20058;-84
2023/07/11 08:31:14;;;;;;;6.47;4.07;;;29.00;63.80;;;;;;4765542;29;20077;-82
2023/07/11 08:33:42;;;;;;;6.35;3.75;;;28.90;63.50;;;;;;4794307;29;20206;-78
2023/07/11 08:36:09;;;;;;;5.53;4.38;;;29.10;64.70;;;;;;4801265;29;20415;-82
2023/07/11 08:38:36;;;;;;;6.13;3.85;;;29.10;64.10;;;;;;4774639;29;20433;-85
2023/07/11 08:41:24;;;;;;;5.63;4.30;;;29.10;64.00;;;;;;4794885;29;20065;-81
2023/07/11 08:43:56;;;;;;;8.13;4.43;;;29.00;63.50;;;;;;4787128;29;20065;-81
2023/07/11 08:46:26;;;;;;;5.60;3.78;;;28.90;63.60;;;;;;4804344;29;20118;-83
2023/07/11 08:48:59;;;;;;;6.20;4.20;;;29.20;64.90;;;;;;4790445;29;20066;-84
2023/07/11 08:51:36;;;;;;;10.98;3.95;;;29.40;64.90;;;;;;4796315;29;20114;-86
2023/07/11 08:54:15;;;;;;;5.30;4.10;;;29.50;64.50;;;;;;4804618;29;20048;-83
2023/07/11 08:56:47;;;;;;;6.97;4.35;;;29.40;64.10;;;;;;4776275;29;20633;-82
2023/07/11 08:59:41;;;;;;;5.70;4.13;;;29.50;64.70;;;;;;4788455;29;22291;-83
2023/07/11 09:02:34;;;;;;;8.68;4.03;;;29.50;65.50;;;;;;4770708;29;20122;-84
2023/07/11 09:05:03;;;;;;;7.68;4.20;;;29.70;65.70;;;;;;4788769;29;20058;-83
2023/07/11 09:07:37;;;;;;;5.47;4.03;;;29.80;64.80;;;;;;4794795;29;20046;-84
2023/07/11 09:10:41;;;;;;;7.55;4.05;;;29.80;65.20;;;;;;4798699;29;20093;-82
2023/07/11 09:13:35;;;;;;;6.35;4.07;;;29.90;64.80;;;;;;4773811;29;20777;-83
2023/07/11 09:16:14;;;;;;;6.40;3.90;;;29.80;64.60;;;;;;4803405;29;20528;-83
2023/07/11 09:19:09;;;;;;;7.53;3.92;;;30.00;65.50;;;;;;4794421;29;20062;-83
2023/07/11 09:21:42;;;;;;;6.65;4.75;;;30.20;64.80;;;;;;4769000;29;20578;-84
2023/07/11 09:24:30;;;;;;;9.73;4.57;;;30.30;64.50;;;;;;4783770;29;20058;-84
2023/07/11 09:27:14;;;;;;;7.95;4.45;;;30.20;62.00;;;;;;4786772;29;20054;-82
2023/07/11 09:29:44;;;;;;;6.93;4.00;;;30.10;61.90;;;;;;4795300;29;20058;-84
2023/07/11 09:32:13;;;;;;;6.32;3.83;;;30.00;61.00;;;;;;4766131;29;20830;-85
2023/07/11 09:34:46;;;;;;;5.65;4.25;;;30.20;61.40;;;;;;4773829;29;20061;-84
2023/07/11 09:37:53;;;;;;;6.38;3.90;;;30.30;61.40;;;;;;4773689;29;20552;-83
2023/07/11 09:40:45;;;;;;;5.25;3.80;;;30.50;60.90;;;;;;4777631;29;20168;-82
2023/07/11 09:43:12;;;;;;;6.05;3.83;;;30.30;59.20;;;;;;4782369;29;20058;-82
2023/07/11 09:45:45;;;;;;;6.75;3.70;;;30.30;60.40;;;;;;4797291;29;20730;-82
2023/07/11 09:48:34;;;;;;;4.45;3.72;;;30.30;58.90;;;;;;4794968;29;20058;-84
2023/07/11 09:51:24;;;;;;;5.95;4.75;;;30.40;61.20;;;;;;4780925;29;20658;-81
2023/07/11 09:53:55;;;;;;;7.90;4.28;;;30.30;60.00;;;;;;4773896;29;20050;-84
2023/07/11 09:56:25;;;;;;;5.72;4.13;;;30.30;60.90;;;;;;4772980;29;20063;-83
2023/07/11 09:59:02;;;;;;;7.90;4.18;;;30.10;60.50;;;;;;4773130;29;20054;-84
2023/07/11 10:01:36;;;;;;;5.78;4.00;;;30.30;60.50;;;;;;4789855;29;20467;-84
2023/07/11 10:04:09;;;;;;;6.45;4.18;;;30.30;61.30;;;;;;4754056;29;20058;-84
2023/07/11 10:06:52;;;;;;;6.90;4.43;;;30.30;59.90;;;;;;4784360;29;20074;-83
2023/07/11 10:09:33;;;;;;;7.63;4.70;;;30.30;61.20;;;;;;4797600;29;20960;-82
2023/07/11 10:12:02;;;;;;;8.00;4.22;;;30.20;60.30;;;;;;4762362;29;20503;-84
2023/07/11 10:14:33;;;;;;;6.40;4.63;;;30.10;60.70;;;;;;4758395;29;20078;-84
2023/07/11 10:17:16;;;;;;;11.85;4.40;;;30.20;60.60;;;;;;4790461;29;20131;-84
2023/07/11 10:19:43;;;;;;;8.90;4.57;;;30.10;61.40;;;;;;4775779;29;20803;-82
2023/07/11 10:22:20;;;;;;;7.65;4.22;;;30.10;61.50;;;;;;4773538;29;20050;-82
2023/07/11 10:24:48;;;;;;;5.82;4.38;;;30.10;61.00;;;;;;4785185;29;20487;-81
2023/07/11 10:27:26;;;;;;;6.20;4.50;;;30.10;61.90;;;;;;4780744;29;20065;-81
2023/07/11 10:29:57;;;;;;;5.53;4.25;;;30.10;61.40;;;;;;4789587;29;20145;-86
2023/07/11 10:32:45;;;;;;;8.60;4.90;;;30.10;62.00;;;;;;4786631;29;20050;-82
2023/07/11 10:35:17;;;;;;;6.53;4.65;;;30.10;61.90;;;;;;4759895;29;20046;-84
2023/07/11 10:37:53;;;;;;;7.75;5.07;;;30.20;61.80;;;;;;4757126;29;20063;-81
2023/07/11 10:40:29;;;;;;;7.75;4.93;;;30.30;62.70;;;;;;4772671;29;20702;-83
2023/07/11 10:43:03;;;;;;;6.95;5.10;;;30.30;61.70;;;;;;4786350;29;20064;-83
2023/07/11 10:45:43;;;;;;;5.88;4.47;;;30.20;62.30;;;;;;4783087;29;20055;-84
2023/07/11 10:48:21;;;;;;;6.72;4.45;;;30.20;62.60;;;;;;4768293;29;20414;-84
2023/07/11 10:50:52;;;;;;;7.95;5.45;;;30.30;62.50;;;;;;4770979;29;20143;-83
2023/07/11 10:53:37;;;;;;;8.00;5.43;;;30.30;62.70;;;;;;4784871;29;20685;-82
2023/07/11 10:56:13;;;;;;;8.45;5.00;;;30.40;62.90;;;;;;4784520;29;20059;-83
2023/07/11 10:58:40;;;;;;;10.32;5.03;;;30.40;62.90;;;;;;4774412;29;20561;-81
2023/07/11 11:01:31;;;;;;;6.75;5.75;;;30.40;62.80;;;;;;4774841;29;20054;-85
2023/07/11 11:04:20;;;;;;;6.78;5.05;;;30.30;63.50;;;;;;4774271;29;20058;-83
2023/07/11 11:06:49;;;;;;;9.13;5.15;;;30.30;63.80;;;;;;4762949;29;20621;-81
2023/07/11 11:09:21;;;;;;;9.77;5.25;;;30.20;63.70;;;;;;4771083;29;20069;-82
2023/07/11 11:12:10;;;;;;;6.85;5.18;;;30.10;63.70;;;;;;4774599;29;20054;-85
2023/07/11 11:14:42;;;;;;;7.95;5.40;;;30.20;64.20;;;;;;4772359;29;20145;-83
2023/07/11 11:17:48;;;;;;;6.97;4.75;;;30.40;64.10;;;;;;4780654;29;20058;-84
2023/07/11 11:20:35;;;;;;;9.32;5.32;;;30.40;63.40;;;;;;4767052;29;20053;-85
2023/07/11 11:23:29;;;;;;;10.00;4.72;;;30.40;63.40;;;;;;4766190;29;20050;-82
2023/07/11 11:26:08;;;;;;;;;;;30.20;63.50;;;;;;4775097;29;20047;-81
2023/07/11 11:29:05;;;;;;;5.32;4.70;;;30.30;63.00;;;;;;4771658;29;19968;-82
2023/07/11 11:31:36;;;;;;;8.38;4.75;;;30.30;63.30;;;;;;4787385;29;20400;-82
2023/07/11 11:34:32;;;;;;;9.38;5.40;;;30.40;63.00;;;;;;4796889;29;20058;-85
2023/07/11 11:37:17;;;;;;;12.95;5.75;;;30.50;63.80;;;;;;4776191;29;20112;-81
2023/07/11 11:39:48;;;;;;;8.45;5.18;;;30.40;62.80;;;;;;4755471;29;20138;-85
2023/07/11 11:42:28;;;;;;;7.35;5.10;;;30.40;62.70;;;;;;4758758;29;20055;-83
2023/07/11 11:45:03;;;;;;;7.72;5.28;;;30.40;63.20;;;;;;4769783;29;20061;-83
2023/07/11 11:47:35;;;;;;;6.20;5.18;;;30.40;63.00;;;;;;4771316;29;20062;-84
2023/07/11 11:50:25;;;;;;;7.88;5.93;;;30.40;62.20;;;;;;4775663;29;20055;-82
2023/07/11 11:53:24;;;;;;;7.80;4.88;;;30.40;63.20;;;;;;4758282;29;20051;-84
2023/07/11 11:55:56;;;;;;;7.50;5.93;;;30.50;63.80;;;;;;4781701;29;20545;-84
2023/07/11 11:59:03;;;;;;;13.85;6.03;;;30.60;62.30;;;;;;4780313;29;20684;-82
2023/07/11 12:01:41;;;;;;;9.32;5.38;;;30.60;63.00;;;;;;4767938;29;20145;-83
2023/07/11 12:04:29;;;;;;;10.45;5.40;;;30.70;63.40;;;;;;4754552;29;20121;-83
2023/07/11 12:07:12;;;;;;;8.20;5.57;;;30.60;63.00;;;;;;4769847;29;20064;-82
2023/07/11 12:09:52;;;;;;;7.40;5.85;;;30.60;62.90;;;;;;4769443;29;20057;-81
2023/07/11 12:12:23;;;;;;;5.95;5.18;;;30.60;62.90;;;;;;4759887;29;20198;-85
2023/07/11 12:14:53;;;;;;;9.50;5.83;;;30.60;62.90;;;;;;4750806;29;20058;-84
2023/07/11 12:17:33;;;;;;;8.70;5.22;;;30.60;62.60;;;;;;4782384;29;20303;-80
2023/07/11 12:20:00;;;;;;;7.35;5.75;;;30.50;63.00;;;;;;4774181;29;20050;-84
2023/07/11 12:22:37;;;;;;;5.97;5.38;;;30.60;63.50;;;;;;4787028;29;20103;-83
2023/07/11 12:25:17;;;;;;;7.35;5.90;;;30.60;63.90;;;;;;4782282;29;20756;-85
2023/07/11 12:27:46;;;;;;;9.23;6.43;;;30.60;63.10;;;;;;4785595;29;20058;-86
2023/07/11 12:30:13;;;;;;;9.07;5.85;;;30.70;63.00;;;;;;4777897;29;20047;-83
2023/07/11 12:32:46;;;;;;;7.78;5.22;;;30.80;64.20;;;;;;4800170;29;20187;-84
2023/07/11 12:35:35;;;;;;;7.38;5.45;;;30.70;63.60;;;;;;4791203;29;20732;-83
2023/07/11 12:38:17;;;;;;;7.32;5.80;;;30.90;63.80;;;;;;4792951;29;20230;-83
2023/07/11 12:40:57;;;;;;;9.50;6.30;;;30.80;63.30;;;;;;4773360;29;20061;-82
2023/07/11 12:43:29;;;;;;;7.45;5.75;;;30.80;62.20;;;;;;4779482;29;20049;-82
2023/07/11 12:45:59;;;;;;;8.13;6.22;;;30.70;62.30;;;;;;4783842;29;20426;-85
2023/07/11 12:48:31;;;;;;;9.18;6.20;;;30.60;62.50;;;;;;4771220;29;20057;-82
2023/07/11 12:51:05;;;;;;;9.50;6.03;;;30.80;62.70;;;;;;4787076;29;20042;-86
2023/07/11 12:53:37;;;;;;;9.10;6.00;;;30.80;63.00;;;;;;4771473;29;20054;-84
2023/07/11 12:56:12;;;;;;;7.43;5.65;;;30.70;63.20;;;;;;4774716;29;22731;-84
2023/07/11 12:58:40;;;;;;;8.52;5.78;;;30.80;62.50;;;;;;4800994;29;20062;-84
2023/07/11 13:01:15;;;;;;;10.63;6.28;;;30.90;61.70;;;;;;4797532;29;20049;-83
2023/07/11 13:03:42;;;;;;;7.28;5.90;;;30.90;61.80;;;;;;4814768;29;20521;-83
2023/07/11 13:06:29;;;;;;;8.20;5.65;;;30.80;61.60;;;;;;4771860;29;20139;-83
2023/07/11 13:08:58;;;;;;;9.40;6.03;;;30.80;62.20;;;;;;4821924;29;20059;-84
2023/07/11 13:11:28;;;;;;;9.63;6.28;;;30.80;62.50;;;;;;4817443;29;20121;-81
2023/07/11 13:13:57;;;;;;;12.23;7.10;;;30.80;62.00;;;;;;4801420;29;20074;-84
2023/07/11 13:16:37;;;;;;;8.55;6.65;;;30.80;59.30;;;;;;4798347;29;20058;-84
2023/07/11 13:19:05;;;;;;;8.40;6.40;;;30.80;58.70;;;;;;4790299;29;20612;-85
2023/07/11 13:21:33;;;;;;;11.50;6.55;;;30.80;59.30;;;;;;4787013;29;20054;-84
2023/07/11 13:24:02;;;;;;;9.55;6.30;;;30.80;61.40;;;;;;4782815;29;20495;-83
2023/07/11 13:26:29;;;;;;;9.20;5.85;;;30.90;61.20;;;;;;4785724;29;20068;-83
2023/07/11 13:29:19;;;;;;;7.72;5.60;;;30.90;62.00;;;;;;4783663;29;20057;-84
2023/07/11 13:31:59;;;;;;;8.50;5.60;;;31.10;62.50;;;;;;4812077;29;20062;-85
2023/07/11 13:34:31;;;;;;;8.35;6.13;;;31.10;62.00;;;;;;4803226;29;20038;-84
2023/07/11 13:36:58;;;;;;;;;;;31.00;61.90;;;;;;4786881;29;20038;-84
2023/07/11 13:39:34;;;;;;;9.23;6.57;;;31.00;60.70;;;;;;4789832;29;19928;-83
2023/07/11 13:42:10;;;;;;;8.98;6.32;;;31.00;60.50;;;;;;4773356;29;20176;-85
2023/07/11 13:44:50;;;;;;;8.15;6.30;;;30.90;60.90;;;;;;4769474;29;20174;-83
2023/07/11 13:47:32;;;;;;;8.13;6.15;;;30.90;60.90;;;;;;4799653;29;20069;-83
2023/07/11 13:50:08;;;;;;;9.65;6.47;;;30.90;61.70;;;;;;4772962;29;20073;-84
2023/07/11 13:52:52;;;;;;;7.82;6.28;;;30.90;60.80;;;;;;4769798;29;20225;-83
2023/07/11 13:55:25;;;;;;;7.93;5.85;;;30.80;61.20;;;;;;4802008;29;20049;-83
2023/07/11 13:57:52;;;;;;;11.35;6.53;;;30.90;61.80;;;;;;4786818;29;20646;-82
2023/07/11 14:00:21;;;;;;;8.65;6.60;;;30.90;60.80;;;;;;4782429;29;20060;-85
2023/07/11 14:02:52;;;;;;;7.75;6.05;;;30.90;60.80;;;;;;4784257;29;20114;-82
2023/07/11 14:05:26;;;;;;;7.22;6.07;;;30.90;61.90;;;;;;4772230;29;20064;-85
2023/07/11 14:07:54;;;;;;;7.68;6.10;;;30.90;62.00;;;;;;4790316;29;22431;-85
2023/07/11 14:10:24;;;;;;;8.77;5.93;;;31.00;62.30;;;;;;4784212;29;20061;-83
2023/07/11 14:12:52;;;;;;;9.75;6.78;;;31.00;61.90;;;;;;4799944;29;20994;-85
2023/07/11 14:15:26;;;;;;;9.43;6.45;;;31.00;61.50;;;;;;4776273;29;20046;-83
2023/07/11 14:17:57;;;;;;;9.38;5.97;;;30.90;61.00;;;;;;4774434;29;20578;-83
2023/07/11 14:20:27;;;;;;;8.88;5.50;;;30.90;61.70;;;;;;4769583;29;20046;-83
2023/07/11 14:22:55;;;;;;;7.03;5.57;;;30.90;62.30;;;;;;4783734;29;20054;-83
2023/07/11 14:25:24;;;;;;;8.75;6.15;;;31.00;62.30;;;;;;4795349;29;20038;-85
2023/07/11 14:27:53;;;;;;;7.40;6.18;;;31.00;62.10;;;;;;4787014;29;20058;-84
2023/07/11 14:30:21;;;;;;;8.10;5.82;;;30.90;60.80;;;;;;4805213;29;20070;-85
2023/07/11 14:32:48;;;;;;;8.27;6.15;;;30.80;60.20;;;;;;4782776;29;20513;-85
2023/07/11 14:35:18;;;;;;;7.72;5.95;;;30.90;59.90;;;;;;4792740;29;20078;-81
2023/07/11 14:37:46;;;;;;;9.27;6.68;;;30.90;60.80;;;;;;4772312;29;22345;-84
2023/07/11 14:40:24;;;;;;;11.00;7.20;;;30.90;60.20;;;;;;4788791;29;20073;-85
2023/07/11 14:42:52;;;;;;;9.18;6.53;;;30.80;59.30;;;;;;4799676;29;21001;-85
2023/07/11 14:45:25;;;;;;;8.70;6.07;;;30.80;60.20;;;;;;4808622;29;20046;-84
2023/07/11 14:47:53;;;;;;;9.95;6.53;;;30.80;59.80;;;;;;4787056;29;20506;-81
2023/07/11 14:50:26;;;;;;;10.27;6.07;;;30.80;60.80;;;;;;4786136;29;20113;-82
2023/07/11 14:52:54;;;;;;;10.18;6.35;;;30.70;59.70;;;;;;4770343;29;20050;-83
2023/07/11 14:55:22;;;;;;;8.82;6.32;;;30.70;58.50;;;;;;4797652;29;20054;-80
2023/07/11 14:57:54;;;;;;;9.40;6.35;;;30.70;58.40;;;;;;4773433;29;20064;-83
2023/07/11 15:00:26;;;;;;;10.20;6.38;;;30.60;58.70;;;;;;4815487;29;20064;-82
2023/07/11 15:02:54;;;;;;;7.88;5.95;;;30.60;58.60;;;;;;4784874;29;20156;-82
2023/07/11 15:05:29;;;;;;;9.07;6.30;;;30.50;59.60;;;;;;4785334;29;20125;-84
2023/07/11 15:07:59;;;;;;;9.45;6.00;;;30.50;59.30;;;;;;4775921;29;20038;-81
2023/07/11 15:10:30;;;;;;;8.07;5.88;;;30.50;58.10;;;;;;4794646;29;20487;-85
2023/07/11 15:12:57;;;;;;;8.48;5.38;;;30.50;59.10;;;;;;4798661;29;20050;-85
2023/07/11 15:15:33;;;;;;;8.90;5.72;;;30.60;59.00;;;;;;4770395;29;20511;-82
2023/07/11 15:18:00;;;;;;;10.00;6.20;;;30.50;59.40;;;;;;4783345;29;20058;-83
2023/07/11 15:20:27;;;;;;;10.02;6.90;;;30.50;59.00;;;;;;4785346;29;20057;-82
2023/07/11 15:22:57;;;;;;;9.25;5.97;;;30.50;58.70;;;;;;4796749;29;20184;-85
2023/07/11 15:25:29;;;;;;;10.70;5.95;;;30.40;59.10;;;;;;4782694;29;20050;-83
2023/07/11 15:27:57;;;;;;;7.65;5.50;;;30.40;60.00;;;;;;4804416;29;20048;-82
2023/07/11 15:30:26;;;;;;;10.30;6.55;;;30.40;59.70;;;;;;4783648;29;20433;-82
2023/07/11 15:32:54;;;;;;;7.85;6.00;;;30.30;59.40;;;;;;4786467;29;20065;-84
2023/07/11 15:35:24;;;;;;;8.63;5.80;;;30.30;59.70;;;;;;4772113;29;20058;-83
2023/07/11 15:37:52;;;;;;;9.85;6.00;;;30.30;59.60;;;;;;4735910;29;20063;-84
2023/07/11 15:40:24;;;;;;;10.07;6.70;;;30.30;60.30;;;;;;4778430;29;20069;-85
2023/07/11 15:42:52;;;;;;;10.20;7.47;;;30.30;59.30;;;;;;4771730;29;20930;-80
2023/07/11 15:45:28;;;;;;;9.25;6.20;;;30.20;59.70;;;;;;4768404;29;20568;-83
2023/07/11 15:47:56;;;;;;;8.60;6.88;;;30.30;60.20;;;;;;4767502;29;20055;-83
2023/07/11 15:50:26;;;;;;;8.65;6.15;;;30.30;60.20;;;;;;4792586;29;20058;-84
2023/07/11 15:52:54;;;;;;;7.32;5.90;;;30.30;60.60;;;;;;4775600;29;20531;-83
2023/07/11 15:55:24;;;;;;;7.10;5.57;;;30.30;61.00;;;;;;4774867;29;20083;-84
2023/07/11 15:57:54;;;;;;;11.10;6.93;;;30.30;61.60;;;;;;4781262;29;20650;-81
2023/07/11 16:00:26;;;;;;;11.13;6.70;;;30.30;60.30;;;;;;4784111;29;20058;-84
2023/07/11 16:02:55;;;;;;;11.63;6.55;;;30.30;60.90;;;;;;4756705;29;20058;-83
2023/07/11 16:05:25;;;;;;;11.23;6.78;;;30.30;60.50;;;;;;4773162;29;20118;-81
2023/07/11 16:07:52;;;;;;;10.48;6.85;;;30.20;60.60;;;;;;4770659;29;20095;-81
2023/07/11 16:10:27;;;;;;;9.20;6.57;;;30.20;60.30;;;;;;4771203;29;20077;-80
2023/07/11 16:12:55;;;;;;;8.98;6.35;;;30.10;60.30;;;;;;4796351;29;20043;-81
2023/07/11 16:15:29;;;;;;;8.35;6.63;;;30.10;61.20;;;;;;4808646;29;20062;-82
2023/07/11 16:17:56;;;;;;;8.85;6.65;;;30.10;61.20;;;;;;4814807;29;20054;-82
2023/07/11 16:20:26;;;;;;;10.25;6.60;;;30.20;61.00;;;;;;4795735;29;21685;-85
2023/07/11 16:22:54;;;;;;;8.40;6.32;;;30.10;61.50;;;;;;4800565;29;20465;-83
2023/07/11 16:25:21;;;;;;;10.98;6.80;;;30.10;61.50;;;;;;4815683;29;20051;-83
2023/07/11 16:27:56;;;;;;;10.07;7.07;;;30.10;61.20;;;;;;4786412;29;20055;-84
2023/07/11 16:30:29;;;;;;;11.50;6.60;;;30.00;60.70;;;;;;4815497;29;20149;-82
2023/07/11 16:32:57;;;;;;;8.88;6.50;;;30.00;61.40;;;;;;4803464;29;20395;-82
2023/07/11 16:35:30;;;;;;;9.23;6.20;;;30.00;61.80;;;;;;4799703;29;20042;-83
2023/07/11 16:38:02;;;;;;;;;;;30.00;61.60;;;;;;4813424;29;20053;-84
2023/07/11 16:40:31;;;;;;;9.27;6.43;;;30.00;61.50;;;;;;4822703;29;20059;-84
2023/07/11 16:42:59;;;;;;;9.50;6.70;;;30.00;61.50;;;;;;4801668;29;20062;-83
2023/07/11 16:45:33;;;;;;;9.48;6.88;;;29.90;61.70;;;;;;4809511;29;20077;-84
2023/07/11 16:48:01;;;;;;;10.27;6.80;;;29.90;62.00;;;;;;4809880;29;20078;-84
2023/07/11 16:50:29;;;;;;;9.05;6.30;;;29.90;61.90;;;;;;4812226;29;20046;-81
2023/07/11 16:52:59;;;;;;;10.50;6.70;;;29.90;62.30;;;;;;4805436;29;20071;-83
2023/07/11 16:55:27;;;;;;;10.75;7.53;;;29.90;62.60;;;;;;4828395;29;20061;-84
2023/07/11 16:57:54;;;;;;;9.85;6.72;;;29.80;62.60;;;;;;4805401;29;20050;-81
2023/07/11 17:00:26;;;;;;;8.75;6.18;;;29.60;63.40;;;;;;4815431;29;20045;-81
2023/07/11 17:02:53;;;;;;;8.93;6.57;;;29.60;63.70;;;;;;4818857;29;20141;-82
2023/07/11 17:05:21;;;;;;;8.15;6.93;;;29.50;63.70;;;;;;4807495;29;20548;-82
2023/07/11 17:07:53;;;;;;;9.80;6.82;;;29.50;64.00;;;;;;4808038;29;20070;-82
2023/07/11 17:10:20;;;;;;;10.32;6.68;;;29.30;64.30;;;;;;4818456;29;20049;-81
2023/07/11 17:12:48;;;;;;;8.80;6.50;;;29.30;64.40;;;;;;4815553;29;20131;-82
2023/07/11 17:15:17;;;;;;;10.35;6.15;;;29.30;64.10;;;;;;4814340;29;20061;-82
2023/07/11 17:17:45;;;;;;;12.25;6.45;;;29.20;64.40;;;;;;4828355;29;20116;-82
2023/07/11 17:20:18;;;;;;;8.93;6.13;;;29.20;64.70;;;;;;4810922;29;20070;-83
2023/07/11 17:22:46;;;;;;;13.23;7.22;;;29.10;64.80;;;;;;4801888;29;20081;-82
2023/07/11 17:25:20;;;;;;;9.70;6.15;;;29.10;64.80;;;;;;4820412;29;20657;-82
2023/07/11 17:27:50;;;;;;;8.45;6.35;;;29.10;65.40;;;;;;4805345;29;20602;-82
2023/07/11 17:30:20;;;;;;;8.63;6.50;;;29.00;65.50;;;;;;4828412;29;20049;-82
2023/07/11 17:32:48;;;;;;;9.00;6.25;;;28.90;65.50;;;;;;4832407;29;20058;-82
2023/07/11 17:35:15;;;;;;;8.13;6.20;;;28.90;65.80;;;;;;4811671;29;20103;-83
2023/07/11 17:37:47;;;;;;;9.48;6.78;;;28.80;66.40;;;;;;4817874;29;20102;-83
2023/07/11 17:40:20;;;;;;;;;;;28.80;66.60;;;;;;4819521;29;20101;-82
2023/07/11 17:42:48;;;;;;;9.55;5.85;;;28.80;66.40;;;;;;4818474;29;22733;-83
2023/07/11 17:45:17;;;;;;;10.60;6.25;;;28.70;66.70;;;;;;4812878;29;20503;-83
2023/07/11 17:48:13;;;;;;;10.43;6.63;;;28.70;67.30;;;;;;4818539;29;20145;-83
2023/07/11 17:50:51;;;;;;;9.73;6.35;;;28.60;67.80;;;;;;4812387;29;20422;-82
2023/07/11 17:53:20;;;;;;;9.15;6.20;;;28.50;67.60;;;;;;4801965;29;20103;-82
2023/07/11 17:55:49;;;;;;;10.90;6.68;;;28.50;67.30;;;;;;4799384;29;20060;-82
2023/07/11 17:58:21;;;;;;;9.05;6.20;;;28.50;67.70;;;;;;4802068;29;20065;-83
2023/07/11 18:00:51;;;;;;;8.73;6.10;;;28.40;68.30;;;;;;4820146;29;20532;-82
2023/07/11 18:03:21;;;;;;;10.00;6.78;;;28.40;68.20;;;;;;4800597;29;20111;-82
2023/07/11 18:05:50;;;;;;;8.93;6.25;;;28.30;68.40;;;;;;4795627;29;20058;-83
2023/07/11 18:08:21;;;;;;;8.45;6.55;;;28.30;69.00;;;;;;4826414;29;20061;-83
2023/07/11 18:10:49;;;;;;;10.82;6.50;;;28.20;68.80;;;;;;4833086;29;20140;-82
2023/07/11 18:13:18;;;;;;;8.85;5.75;;;28.20;68.60;;;;;;4825642;29;20174;-82
2023/07/11 18:15:47;;;;;;;8.68;6.38;;;28.10;68.90;;;;;;4815356;29;20074;-85
2023/07/11 18:18:25;;;;;;;11.43;6.88;;;28.10;69.00;;;;;;4818891;29;20061;-83
2023/07/11 18:20:58;;;;;;;7.97;6.03;;;28.00;69.40;;;;;;4830250;29;20840;-82
2023/07/11 18:23:27;;;;;;;9.48;6.55;;;28.00;69.30;;;;;;4796806;29;20126;-82
2023/07/11 18:25:57;;;;;;;9.50;5.85;;;27.90;69.60;;;;;;4816978;29;20108;-82
2023/07/11 18:28:25;;;;;;;7.50;5.93;;;27.90;69.90;;;;;;4828567;29;20472;-82
2023/07/11 18:30:53;;;;;;;7.95;5.80;;;27.90;69.80;;;;;;4803648;29;20077;-82
2023/07/11 18:33:21;;;;;;;8.65;6.40;;;27.80;70.20;;;;;;4812821;29;20191;-81
2023/07/11 18:35:49;;;;;;;8.73;5.72;;;27.80;70.00;;;;;;4824518;29;20057;-83
2023/07/11 18:38:20;;;;;;;9.25;6.13;;;27.70;71.00;;;;;;4800946;29;20054;-82